Time;durP1;ratioP1;P1;durP2;ratioP2;P2;SDS_P1;SDS_P2;PMS_P1;PMS_P2;Temp;Humidity;BMP_temperature;BMP_pressure;BME280_temperature;BME280_humidity;BME280_pressure;Samples;Min_cycle;Max_cycle;Signal;HPM_P1;HPM_P2
2022/03/02 00:00:24;;;;;;;14.25;9.45;;;;;;;0.99;nan;100375.19;4967690;28;20219;-75
2022/03/02 00:02:52;;;;;;;11.63;9.30;;;;;;;1.00;nan;100379.50;4967728;28;20255;-75
2022/03/02 00:05:20;;;;;;;12.50;10.35;;;;;;;1.01;nan;100376.03;4967397;28;20216;-75
2022/03/02 00:07:45;;;;;;;15.25;11.30;;;;;;;0.98;nan;100380.38;4966294;28;20208;-77
2022/03/02 00:10:11;;;;;;;15.70;11.33;;;;;;;0.97;nan;100371.75;4968277;28;20230;-76
2022/03/02 00:12:36;;;;;;;14.80;10.40;;;;;;;0.97;nan;100373.47;4947558;28;20228;-76
2022/03/02 00:15:03;;;;;;;19.50;12.03;;;;;;;0.87;nan;100371.03;4966452;28;20243;-77
2022/03/02 00:17:28;;;;;;;14.43;9.75;;;;;;;0.75;nan;100376.31;4965416;28;20209;-76
2022/03/02 00:19:54;;;;;;;13.50;10.07;;;;;;;0.70;nan;100374.66;4967140;28;20238;-76
2022/03/02 00:22:20;;;;;;;16.67;10.53;;;;;;;0.66;nan;100373.84;4967371;28;20204;-76
2022/03/02 00:24:50;;;;;;;10.63;9.30;;;;;;;0.66;nan;100371.25;4966543;28;20211;-76
2022/03/02 00:27:23;;;;;;;13.73;9.52;;;;;;;0.64;nan;100366.09;4967457;28;20223;-75
2022/03/02 00:29:49;;;;;;;14.05;10.38;;;;;;;0.56;nan;100365.31;4969154;28;20239;-76
2022/03/02 00:32:14;;;;;;;17.67;12.90;;;;;;;0.46;nan;100371.50;4966678;28;20959;-76
2022/03/02 00:34:40;;;;;;;13.00;10.93;;;;;;;0.38;nan;100370.72;4950086;28;20200;-76
2022/03/02 00:37:06;;;;;;;15.10;9.40;;;;;;;0.33;nan;100362.13;4944893;28;20374;-76
2022/03/02 00:39:32;;;;;;;13.18;9.73;;;;;;;0.22;nan;100365.66;4964842;28;20255;-74
2022/03/02 00:41:57;;;;;;;28.90;12.87;;;;;;;0.12;nan;100361.44;4966758;28;20596;-74
2022/03/02 00:44:23;;;;;;;14.00;11.20;;;;;;;0.02;nan;100354.66;4966969;28;20517;-76
2022/03/02 00:46:48;;;;;;;16.30;11.50;;;;;;;-0.09;nan;100341.81;4965099;28;20212;-76
2022/03/02 00:49:14;;;;;;;15.00;11.07;;;;;;;-0.15;nan;100336.72;4974017;28;20212;-76
2022/03/02 00:51:40;;;;;;;15.47;10.77;;;;;;;-0.12;nan;100343.59;4978422;28;20228;-76
2022/03/02 00:54:05;;;;;;;15.80;10.37;;;;;;;-0.06;nan;100343.53;4979747;28;20459;-76
2022/03/02 00:56:31;;;;;;;15.97;10.33;;;;;;;-0.02;nan;100334.91;4979059;28;20211;-76
2022/03/02 00:58:56;;;;;;;16.67;11.70;;;;;;;0.01;nan;100344.34;4967305;28;20208;-76
2022/03/02 01:01:22;;;;;;;18.30;13.40;;;;;;;0.05;nan;100336.53;4966808;28;20470;-76
2022/03/02 01:03:47;;;;;;;14.77;10.43;;;;;;;0.09;nan;100340.81;4966808;28;20188;-76
2022/03/02 01:06:13;;;;;;;10.60;8.80;;;;;;;0.10;nan;100331.34;4966026;28;20255;-76
2022/03/02 01:08:38;;;;;;;15.27;9.67;;;;;;;0.04;nan;100329.66;4966957;28;20617;-76
2022/03/02 01:11:04;;;;;;;14.27;11.17;;;;;;;-0.07;nan;100322.03;4966369;28;20232;-76
2022/03/02 01:13:29;;;;;;;13.07;8.90;;;;;;;-0.21;nan;100323.88;4966638;28;20530;-76
2022/03/02 01:15:55;;;;;;;11.33;8.77;;;;;;;-0.32;nan;100317.94;4966124;28;20205;-76
2022/03/02 01:18:20;;;;;;;16.70;11.00;;;;;;;-0.41;nan;100318.84;4965475;28;20726;-76
2022/03/02 01:20:45;;;;;;;12.83;9.67;;;;;;;-0.49;nan;100318.03;4966729;28;20322;-76
2022/03/02 01:23:11;;;;;;;16.33;10.70;;;;;;;-0.54;nan;100324.97;4964143;28;20323;-76
2022/03/02 01:25:37;;;;;;;15.53;9.90;;;;;;;-0.57;nan;100319.81;4965554;28;20215;-76
2022/03/02 01:28:03;;;;;;;16.57;11.60;;;;;;;-0.55;nan;100318.09;4963792;28;20289;-76
2022/03/02 01:30:29;;;;;;;15.43;10.07;;;;;;;-0.50;nan;100314.63;4965189;28;20468;-76
2022/03/02 01:32:54;;;;;;;12.83;10.57;;;;;;;-0.41;nan;100307.66;4966050;28;20282;-73
2022/03/02 01:35:20;;;;;;;20.77;10.27;;;;;;;-0.37;nan;100294.75;4962484;28;20208;-74
2022/03/02 01:37:45;;;;;;;16.70;11.03;;;;;;;-0.36;nan;100301.59;4966244;28;20220;-74
2022/03/02 01:40:11;;;;;;;17.57;10.20;;;;;;;-0.35;nan;100289.53;4965472;28;20244;-76
2022/03/02 01:42:38;;;;;;;13.50;9.47;;;;;;;-0.33;nan;100293.81;4965483;28;20291;-76
2022/03/02 01:45:05;;;;;;;12.00;10.25;;;;;;;-0.31;nan;100284.34;4964423;28;20213;-73
2022/03/02 01:47:30;;;;;;;14.85;10.65;;;;;;;-0.27;nan;100283.47;4965299;28;20677;-76
2022/03/02 01:49:56;;;;;;;15.30;11.30;;;;;;;-0.21;nan;100286.88;4965646;28;20235;-76
2022/03/02 01:52:21;;;;;;;16.30;10.43;;;;;;;-0.18;nan;100284.25;4965409;28;20558;-76
2022/03/02 01:54:47;;;;;;;15.48;10.10;;;;;;;-0.15;nan;100279.06;4945770;28;20246;-75
2022/03/02 01:57:12;;;;;;;13.77;9.33;;;;;;;-0.13;nan;100285.09;4947998;28;20200;-76
2022/03/02 01:59:38;;;;;;;15.43;10.63;;;;;;;-0.14;nan;100278.19;4948162;28;20881;-75
2022/03/02 02:02:04;;;;;;;14.70;10.73;;;;;;;-0.14;nan;100267.84;4963040;28;20263;-75
2022/03/02 02:04:30;;;;;;;13.60;9.37;;;;;;;-0.14;nan;100270.44;4965379;28;20212;-76
2022/03/02 02:06:55;;;;;;;20.30;11.03;;;;;;;-0.20;nan;100260.19;4965435;28;20611;-75
2022/03/02 02:09:21;;;;;;;12.20;8.90;;;;;;;-0.26;nan;100269.69;4965395;28;20466;-75
2022/03/02 02:11:46;;;;;;;20.03;9.90;;;;;;;-0.29;nan;100264.56;4965304;28;20224;-75
2022/03/02 02:14:12;;;;;;;13.97;9.90;;;;;;;-0.32;nan;100262.00;4965733;28;20618;-75
2022/03/02 02:16:37;;;;;;;14.50;11.83;;;;;;;-0.36;nan;100255.13;4965052;28;20684;-76
2022/03/02 02:19:03;;;;;;;15.70;9.77;;;;;;;-0.39;nan;100265.50;4964856;28;20235;-76
2022/03/02 02:21:29;;;;;;;13.03;10.80;;;;;;;-0.42;nan;100268.09;4965674;28;20744;-76
2022/03/02 02:23:54;;;;;;;18.67;11.63;;;;;;;-0.47;nan;100259.53;4969092;28;20247;-76
2022/03/02 02:26:21;;;;;;;19.93;11.07;;;;;;;-0.49;nan;100267.31;4969850;28;20411;-76
2022/03/02 02:28:48;;;;;;;12.15;8.98;;;;;;;-0.50;nan;100262.16;4966451;28;20215;-76
2022/03/02 02:31:14;;;;;;;17.50;11.43;;;;;;;-0.58;nan;100267.38;4964689;28;20739;-76
2022/03/02 02:33:39;;;;;;;14.73;9.83;;;;;;;-0.71;nan;100276.91;4965269;28;20267;-76
2022/03/02 02:36:05;;;;;;;13.67;9.80;;;;;;;-0.80;nan;100264.09;4963924;28;20501;-75
2022/03/02 02:38:30;;;;;;;17.60;10.63;;;;;;;-0.80;nan;100261.50;4964569;28;20291;-76
2022/03/02 02:40:56;;;;;;;12.63;11.20;;;;;;;-0.79;nan;100258.06;4964076;28;20609;-75
2022/03/02 02:43:25;;;;;;;16.07;10.50;;;;;;;-0.78;nan;100264.94;4963198;28;20287;-75
2022/03/02 02:45:51;;;;;;;14.65;9.02;;;;;;;-0.76;nan;100267.50;4964363;28;20212;-75
2022/03/02 02:48:16;;;;;;;13.30;9.55;;;;;;;-0.76;nan;100265.75;4962555;28;20592;-76
2022/03/02 02:50:42;;;;;;;10.20;8.50;;;;;;;-0.75;nan;100258.91;4947112;28;20220;-76
2022/03/02 02:53:11;;;;;;;19.27;11.37;;;;;;;-0.76;nan;100255.44;4964507;28;20619;-76
2022/03/02 02:55:38;;;;;;;12.55;10.32;;;;;;;-0.75;nan;100258.91;4963731;28;20682;-76
2022/03/02 02:58:04;;;;;;;10.98;8.15;;;;;;;-0.76;nan;100260.59;4964445;28;20233;-75
2022/03/02 03:00:33;;;;;;;12.80;8.98;;;;;;;-0.79;nan;100263.22;4964414;28;20220;-75
2022/03/02 03:03:00;;;;;;;15.93;11.90;;;;;;;-0.73;nan;100264.88;4963033;28;20469;-75
2022/03/02 03:05:29;;;;;;;14.13;9.13;;;;;;;-0.76;nan;100270.91;4946461;28;20212;-76
2022/03/02 03:07:56;;;;;;;14.63;10.38;;;;;;;-0.86;nan;100258.97;4964425;28;20232;-76
2022/03/02 03:10:22;;;;;;;14.48;9.38;;;;;;;-0.94;nan;100258.19;4964508;28;20291;-76
2022/03/02 03:12:48;;;;;;;14.32;9.15;;;;;;;-1.04;nan;100257.38;4965293;28;20593;-75
2022/03/02 03:15:16;;;;;;;13.30;9.77;;;;;;;-1.17;nan;100258.28;4964339;28;20212;-76
2022/03/02 03:17:42;;;;;;;16.65;9.90;;;;;;;-1.21;nan;100259.19;4963816;28;20212;-75
2022/03/02 03:20:10;;;;;;;13.83;9.50;;;;;;;-1.18;nan;100254.88;4945773;28;20345;-75
2022/03/02 03:22:36;;;;;;;13.30;9.90;;;;;;;-1.16;nan;100247.09;4963804;28;20239;-75
2022/03/02 03:25:02;;;;;;;13.50;8.87;;;;;;;-1.23;nan;100235.13;4963632;28;20278;-76
2022/03/02 03:27:28;;;;;;;12.73;8.45;;;;;;;-1.29;nan;100237.75;4960734;28;20495;-75
2022/03/02 03:29:53;;;;;;;13.33;7.77;;;;;;;-1.35;nan;100242.06;4962830;28;20256;-75
2022/03/02 03:32:19;;;;;;;18.90;11.65;;;;;;;-1.36;nan;100235.19;4945938;28;20500;-75
2022/03/02 03:34:44;;;;;;;13.00;8.73;;;;;;;-1.40;nan;100230.94;4963605;28;20235;-75
2022/03/02 03:37:10;;;;;;;11.10;9.93;;;;;;;-1.42;nan;100235.22;4963312;28;20235;-75
2022/03/02 03:39:35;;;;;;;15.60;9.77;;;;;;;-1.38;nan;100238.63;4961921;28;20208;-75
2022/03/02 03:42:01;;;;;;;13.63;10.07;;;;;;;-1.31;nan;100242.91;4963678;28;20236;-75
2022/03/02 03:44:27;;;;;;;14.80;7.77;;;;;;;-1.25;nan;100240.28;4961690;28;20209;-75
2022/03/02 03:46:52;;;;;;;15.33;8.93;;;;;;;-1.21;nan;100239.41;4963537;28;20224;-75
2022/03/02 03:49:18;;;;;;;11.90;8.13;;;;;;;-1.17;nan;100235.94;4963976;28;20224;-75
2022/03/02 03:51:44;;;;;;;11.90;7.53;;;;;;;-1.14;nan;100235.06;4962176;28;20700;-75
2022/03/02 03:54:10;;;;;;;13.37;9.17;;;;;;;-1.12;nan;100236.78;4945456;28;20585;-75
2022/03/02 03:56:35;;;;;;;13.10;7.57;;;;;;;-1.11;nan;100229.91;4962431;28;20565;-76
2022/03/02 03:59:01;;;;;;;15.60;8.20;;;;;;;-1.08;nan;100231.59;4964514;28;20200;-75
2022/03/02 04:01:27;;;;;;;10.43;8.23;;;;;;;-1.19;nan;100235.13;4962603;28;20243;-75
2022/03/02 04:03:53;;;;;;;11.98;7.45;;;;;;;-1.36;nan;100235.19;4962186;28;20219;-75
2022/03/02 04:06:19;;;;;;;11.93;7.63;;;;;;;-1.52;nan;100232.69;4961239;28;20196;-75
2022/03/02 04:08:45;;;;;;;11.67;7.80;;;;;;;-1.64;nan;100231.91;4966692;28;20964;-75
2022/03/02 04:11:10;;;;;;;14.90;10.03;;;;;;;-1.67;nan;100231.91;4965807;28;20232;-75
2022/03/02 04:13:36;;;;;;;15.87;14.20;;;;;;;-1.66;nan;100220.72;4965427;28;20215;-75
2022/03/02 04:16:02;;;;;;;12.37;8.30;;;;;;;-1.70;nan;100216.47;4967002;28;20611;-75
2022/03/02 04:18:28;;;;;;;13.45;8.85;;;;;;;-1.74;nan;100206.19;4967182;28;20565;-75
2022/03/02 04:20:53;;;;;;;14.77;7.43;;;;;;;-1.75;nan;100200.19;4966012;28;20228;-75
2022/03/02 04:23:21;;;;;;;11.00;7.23;;;;;;;-1.74;nan;100201.03;4966763;28;20206;-75
2022/03/02 04:25:48;;;;;;;15.32;7.75;;;;;;;-1.78;nan;100192.47;4965609;28;20209;-75
2022/03/02 04:28:13;;;;;;;12.05;7.80;;;;;;;-1.78;nan;100210.50;4966266;28;20212;-75
2022/03/02 04:30:39;;;;;;;9.30;8.30;;;;;;;-1.73;nan;100203.59;4964265;28;20224;-75
2022/03/02 04:33:05;;;;;;;14.85;11.60;;;;;;;-1.65;nan;100203.56;4965790;28;20544;-75
2022/03/02 04:35:31;;;;;;;15.70;10.17;;;;;;;-1.64;nan;100203.56;4965553;28;20208;-75
2022/03/02 04:37:57;;;;;;;15.43;8.98;;;;;;;-1.60;nan;100201.81;4966200;28;20330;-75
2022/03/02 04:43:12;;;;;;;24.75;12.73;;;;;;;-1.55;nan;100197.50;4930888;29;20988;-75
2022/03/02 04:45:38;;;;;;;16.80;9.70;;;;;;;-1.56;nan;100198.38;4937750;29;20276;-74
2022/03/02 04:48:04;;;;;;;12.70;9.00;;;;;;;-1.58;nan;100198.38;4947146;28;20461;-76
2022/03/02 04:50:29;;;;;;;17.00;11.50;;;;;;;-1.59;nan;100194.09;4946646;29;20213;-74
2022/03/02 04:52:56;;;;;;;27.00;13.07;;;;;;;-1.60;nan;100200.09;4947592;29;20334;-75
2022/03/02 04:55:21;;;;;;;17.95;9.63;;;;;;;-1.64;nan;100198.41;4946932;29;20205;-75
2022/03/02 04:57:50;;;;;;;17.02;10.75;;;;;;;-1.72;nan;100200.16;4947707;29;20313;-74
2022/03/02 05:00:18;;;;;;;14.88;9.15;;;;;;;-1.77;nan;100196.75;4947412;29;20625;-74
2022/03/02 05:02:45;;;;;;;16.58;9.95;;;;;;;-1.77;nan;100195.91;4947766;29;20291;-74
2022/03/02 05:05:14;;;;;;;14.73;9.43;;;;;;;-1.76;nan;100198.44;4947251;29;20245;-74
2022/03/02 05:07:40;;;;;;;17.55;10.15;;;;;;;-1.79;nan;100191.59;4946654;29;20208;-75
2022/03/02 05:10:06;;;;;;;22.30;9.05;;;;;;;-1.82;nan;100188.19;4947567;29;20224;-74
2022/03/02 05:12:33;;;;;;;20.13;8.63;;;;;;;-1.83;nan;100186.47;4929624;29;20318;-75
2022/03/02 05:14:58;;;;;;;11.63;8.70;;;;;;;-1.84;nan;100189.91;4947497;29;20244;-74
2022/03/02 05:17:23;;;;;;;15.30;9.40;;;;;;;-1.81;nan;100195.03;4946821;29;20745;-75
2022/03/02 05:19:49;;;;;;;11.27;8.60;;;;;;;-1.80;nan;100197.59;4946225;28;20225;-74
2022/03/02 05:22:14;;;;;;;15.97;10.73;;;;;;;-1.83;nan;100181.31;4945283;28;20721;-74
2022/03/02 05:24:41;;;;;;;13.60;7.93;;;;;;;-1.84;nan;100192.47;4947054;29;20303;-73
2022/03/02 05:27:07;;;;;;;16.25;9.60;;;;;;;-1.83;nan;100194.19;4946036;28;20213;-76
2022/03/02 05:29:33;;;;;;;17.30;10.40;;;;;;;-1.79;nan;100189.00;4945875;29;20495;-73
2022/03/02 05:31:59;;;;;;;17.15;12.93;;;;;;;-1.76;nan;100193.28;4943853;29;20554;-74
2022/03/02 05:34:24;;;;;;;16.23;9.90;;;;;;;-1.75;nan;100189.03;4946834;29;20224;-75
2022/03/02 05:36:50;;;;;;;14.73;9.17;;;;;;;-1.76;nan;100195.88;4946800;28;20216;-74
2022/03/02 05:39:15;;;;;;;13.13;9.27;;;;;;;-1.82;nan;100194.19;4946435;28;20213;-75
2022/03/02 05:41:41;;;;;;;12.53;9.23;;;;;;;-1.89;nan;100189.06;4934943;29;20284;-75
2022/03/02 05:44:08;;;;;;;12.40;7.87;;;;;;;-1.93;nan;100185.66;4946678;29;20225;-75
2022/03/02 05:46:36;;;;;;;16.13;9.70;;;;;;;-1.99;nan;100190.81;4945845;29;20213;-75
2022/03/02 05:49:04;;;;;;;14.27;11.27;;;;;;;-2.05;nan;100186.56;4946525;29;20624;-74
2022/03/02 05:51:30;;;;;;;12.80;9.00;;;;;;;-2.03;nan;100187.38;4945664;29;20221;-76
2022/03/02 05:53:56;;;;;;;13.25;9.40;;;;;;;-2.05;nan;100189.13;4944287;29;20229;-74
2022/03/02 05:56:23;;;;;;;15.98;10.25;;;;;;;-2.10;nan;100190.00;4945476;28;20224;-74
2022/03/02 05:58:48;;;;;;;13.75;10.63;;;;;;;-2.15;nan;100194.31;4945309;29;20269;-75
2022/03/02 06:01:14;;;;;;;13.37;10.50;;;;;;;-2.15;nan;100200.31;4945299;28;20244;-74
2022/03/02 06:03:39;;;;;;;13.10;11.80;;;;;;;-2.13;nan;100200.28;4944717;28;20197;-75
2022/03/02 06:06:05;;;;;;;14.73;9.63;;;;;;;-2.10;nan;100208.03;4945251;29;20471;-74
2022/03/02 06:08:31;;;;;;;17.53;10.80;;;;;;;-2.12;nan;100200.28;4946069;29;20279;-75
2022/03/02 06:10:56;;;;;;;13.53;10.27;;;;;;;-2.17;nan;100208.88;4945132;28;20307;-75
2022/03/02 06:13:22;;;;;;;15.93;10.37;;;;;;;-2.22;nan;100198.59;4944025;28;20236;-75
2022/03/02 06:15:48;;;;;;;21.63;9.87;;;;;;;-2.28;nan;100196.03;4945884;28;20205;-74
2022/03/02 06:18:14;;;;;;;17.63;9.03;;;;;;;-2.29;nan;100196.91;4945530;29;20682;-74
2022/03/02 06:20:42;;;;;;;14.53;8.90;;;;;;;-2.26;nan;100200.31;4944842;28;20221;-75
2022/03/02 06:23:08;;;;;;;13.23;10.18;;;;;;;-2.19;nan;100197.72;4942750;28;20592;-75
2022/03/02 06:25:34;;;;;;;18.97;13.27;;;;;;;-2.11;nan;100199.41;4944460;29;20681;-76
2022/03/02 06:27:59;;;;;;;20.20;12.33;;;;;;;-2.03;nan;100200.25;4943707;29;20493;-74
2022/03/02 06:30:24;;;;;;;31.67;19.60;;;;;;;-1.93;nan;100201.09;4944044;28;20496;-75
2022/03/02 06:32:50;;;;;;;26.57;18.33;;;;;;;-1.82;nan;100198.47;4942359;28;20503;-74
2022/03/02 06:35:15;;;;;;;22.13;14.90;;;;;;;-1.77;nan;100201.91;4938538;29;20213;-74
2022/03/02 06:37:41;;;;;;;17.07;12.27;;;;;;;-1.73;nan;100198.44;4939348;28;20212;-75
2022/03/02 06:40:09;;;;;;;21.00;12.40;;;;;;;-1.67;nan;100202.72;4938450;29;20204;-75
2022/03/02 06:42:59;;;;;;;18.33;11.65;;;;;;;-1.63;nan;100202.69;4940738;29;20361;-75
2022/03/02 06:45:49;;;;;;;12.70;9.23;;;;;;;-1.61;nan;100200.13;4939365;29;20209;-75
2022/03/02 06:48:57;;;;;;;11.48;9.30;;;;;;;-1.64;nan;100197.56;4937561;29;20221;-75
2022/03/02 06:51:24;;;;;;;13.95;9.18;;;;;;;-1.71;nan;100194.13;4908972;29;20365;-75
2022/03/02 06:53:51;;;;;;;14.82;9.88;;;;;;;-1.75;nan;100199.31;4933822;29;20224;-76
2022/03/02 06:56:19;;;;;;;11.35;8.65;;;;;;;-1.83;nan;100200.19;4940081;29;20307;-75
2022/03/02 06:58:47;;;;;;;19.73;10.05;;;;;;;-1.88;nan;100198.50;4942112;29;20208;-75
2022/03/02 07:01:14;;;;;;;16.15;10.20;;;;;;;-1.91;nan;100196.81;4948337;29;20498;-76
2022/03/02 07:03:45;;;;;;;13.40;10.40;;;;;;;-1.89;nan;100197.66;4941653;29;20421;-75
2022/03/02 07:06:12;;;;;;;13.05;8.57;;;;;;;-1.81;nan;100205.34;4920580;29;20383;-75
2022/03/02 07:08:39;;;;;;;17.75;9.35;;;;;;;-1.75;nan;100200.19;4930797;28;20770;-75
2022/03/02 07:11:04;;;;;;;11.25;8.57;;;;;;;-1.72;nan;100209.63;4933212;28;20220;-75
2022/03/02 07:13:33;;;;;;;13.60;8.67;;;;;;;-1.65;nan;100199.25;4939328;29;20839;-75
2022/03/02 07:15:59;;;;;;;15.77;9.50;;;;;;;-1.56;nan;100200.94;4940894;29;21044;-74
2022/03/02 07:18:24;;;;;;;12.50;9.23;;;;;;;-1.44;nan;100203.44;4939690;29;20314;-75
2022/03/02 07:20:51;;;;;;;14.70;11.70;;;;;;;-1.36;nan;100204.25;4940536;29;20228;-76
2022/03/02 07:23:18;;;;;;;16.23;12.02;;;;;;;-1.33;nan;100204.25;4939362;28;20682;-74
2022/03/02 07:25:44;;;;;;;16.75;11.63;;;;;;;-1.24;nan;100198.22;4938642;28;20290;-74
2022/03/02 07:28:12;;;;;;;21.05;14.23;;;;;;;-1.16;nan;100199.00;4939444;29;20215;-74
2022/03/02 07:30:39;;;;;;;14.80;11.15;;;;;;;-1.05;nan;100193.78;4938823;29;20940;-75
2022/03/02 07:33:05;;;;;;;17.27;10.88;;;;;;;-0.91;nan;100196.25;4939690;29;20830;-75
2022/03/02 07:35:34;;;;;;;16.13;11.50;;;;;;;-0.76;nan;100196.13;4938959;29;20209;-75
2022/03/02 07:38:01;;;;;;;13.80;8.88;;;;;;;-0.61;nan;100195.16;4939572;29;20223;-75
2022/03/02 07:40:26;;;;;;;10.95;9.63;;;;;;;-0.44;nan;100200.16;4939289;28;20639;-76
2022/03/02 07:42:52;;;;;;;21.60;10.77;;;;;;;-0.27;nan;100198.28;4940889;28;20292;-74
2022/03/02 07:45:18;;;;;;;14.60;8.67;;;;;;;-0.09;nan;100197.22;4943571;29;20209;-77
2022/03/02 07:47:45;;;;;;;11.57;7.63;;;;;;;0.08;nan;100193.59;4942381;29;20283;-75
2022/03/02 07:50:11;;;;;;;15.60;9.20;;;;;;;0.26;nan;100198.56;4942957;29;20215;-78
2022/03/02 07:52:39;;;;;;;10.45;8.20;;;;;;;0.46;nan;100197.44;4942263;29;20229;-77
2022/03/02 07:55:10;;;;;;;15.23;8.18;;;;;;;0.68;nan;100198.03;4942701;29;20620;-75
2022/03/02 07:57:41;;;;;;;10.73;8.05;;;;;;;0.87;nan;100195.16;4942239;29;20217;-75
2022/03/02 08:00:09;;;;;;;13.45;7.75;;;;;;;1.07;nan;100196.59;4942130;29;20220;-75
2022/03/02 08:02:35;;;;;;;13.87;10.70;;;;;;;1.32;nan;100199.63;4941904;29;20525;-77
2022/03/02 08:05:01;;;;;;;12.63;8.50;;;;;;;1.51;nan;100198.47;4942141;29;20480;-73
2022/03/02 08:07:27;;;;;;;10.13;7.32;;;;;;;1.69;nan;100186.91;4942020;28;20588;-76
2022/03/02 08:09:52;;;;;;;11.60;8.20;;;;;;;1.87;nan;100187.47;4940845;28;20610;-77
2022/03/02 08:12:22;;;;;;;15.57;9.37;;;;;;;2.05;nan;100183.66;4942937;29;20233;-78
2022/03/02 08:14:48;;;;;;;20.85;9.32;;;;;;;2.21;nan;100177.28;4952690;28;20217;-76
2022/03/02 08:17:15;;;;;;;10.05;7.70;;;;;;;2.35;nan;100184.78;4941782;29;20291;-75
2022/03/02 08:19:41;;;;;;;14.63;7.47;;;;;;;2.45;nan;100183.69;4940604;29;20290;-74
2022/03/02 08:22:12;;;;;;;11.27;8.10;;;;;;;2.56;nan;100173.09;4943444;29;20320;-74
2022/03/02 08:24:43;;;;;;;11.55;8.70;;;;;;;2.68;nan;100170.25;4941738;29;20205;-75
2022/03/02 08:27:12;;;;;;;12.00;8.93;;;;;;;2.80;nan;100171.69;4941259;28;20221;-79
2022/03/02 08:29:38;;;;;;;16.35;10.80;;;;;;;3.10;nan;100177.91;4940381;29;20539;-79
2022/03/02 08:32:05;;;;;;;17.17;10.13;;;;;;;3.72;nan;100164.25;4941547;28;20644;-77
2022/03/02 08:34:32;;;;;;;17.83;10.50;;;;;;;4.59;nan;100161.78;4941299;29;20791;-74
2022/03/02 08:37:00;;;;;;;14.30;9.95;;;;;;;5.37;nan;100158.41;4940837;29;20216;-77
2022/03/02 08:39:25;;;;;;;18.85;9.88;;;;;;;5.85;nan;100149.81;4941567;28;20303;-74
2022/03/02 08:41:52;;;;;;;17.20;13.23;;;;;;;5.86;nan;100148.94;4941801;28;20331;-78
2022/03/02 08:44:19;;;;;;;17.33;13.50;;;;;;;5.72;nan;100144.19;4942893;29;20474;-74
2022/03/02 08:46:46;;;;;;;19.88;14.18;;;;;;;5.69;nan;100146.91;4941275;29;20204;-78
2022/03/02 08:49:13;;;;;;;20.88;14.00;;;;;;;5.64;nan;100159.22;4942214;28;20709;-77
2022/03/02 08:51:40;;;;;;;16.98;12.35;;;;;;;5.64;nan;100153.19;4942938;29;20221;-77
2022/03/02 08:54:08;;;;;;;16.17;13.43;;;;;;;5.65;nan;100152.28;4941018;28;20585;-75
2022/03/02 08:56:37;;;;;;;17.70;12.80;;;;;;;5.68;nan;100142.59;4942388;28;20458;-74
2022/03/02 08:59:04;;;;;;;24.38;16.55;;;;;;;5.75;nan;100138.88;4932404;29;20714;-77
2022/03/02 09:01:30;;;;;;;21.98;14.98;;;;;;;6.00;nan;100134.59;4941470;28;20475;-75
2022/03/02 09:03:59;;;;;;;22.67;14.70;;;;;;;6.10;nan;100125.50;4942940;29;20695;-76
2022/03/02 09:06:27;;;;;;;19.48;13.15;;;;;;;6.16;nan;100135.72;4941589;28;20205;-75
2022/03/02 09:08:55;;;;;;;15.18;11.85;;;;;;;6.14;nan;100132.31;4940223;28;20201;-77
2022/03/02 09:11:21;;;;;;;18.42;11.60;;;;;;;6.08;nan;100125.56;4942630;29;20221;-76
2022/03/02 09:13:47;;;;;;;16.10;11.95;;;;;;;5.86;nan;100127.19;4941328;28;20231;-75
2022/03/02 09:16:12;;;;;;;18.70;12.23;;;;;;;5.77;nan;100131.00;4942859;29;20745;-77
2022/03/02 09:18:38;;;;;;;13.77;11.43;;;;;;;5.67;nan;100134.81;4940446;29;20727;-75
2022/03/02 09:21:05;;;;;;;13.50;10.20;;;;;;;5.55;nan;100144.78;4939957;28;20225;-73
2022/03/02 09:23:35;;;;;;;15.55;11.85;;;;;;;5.42;nan;100140.88;4940871;29;20263;-74
2022/03/02 09:26:07;;;;;;;21.40;14.48;;;;;;;5.36;nan;100137.66;4940491;29;20673;-74
2022/03/02 09:28:35;;;;;;;16.75;11.13;;;;;;;5.27;nan;100138.81;4941373;29;20248;-74
2022/03/02 09:31:06;;;;;;;24.33;14.50;;;;;;;5.19;nan;100135.63;4941640;29;20202;-74
2022/03/02 09:33:34;;;;;;;19.75;13.10;;;;;;;5.13;nan;100141.00;4940403;28;20476;-74
2022/03/02 09:36:08;;;;;;;17.30;10.93;;;;;;;5.08;nan;100141.16;4936534;28;20208;-74
2022/03/02 09:38:34;;;;;;;16.88;12.02;;;;;;;5.03;nan;100136.09;4938654;28;20208;-75
2022/03/02 09:41:05;;;;;;;18.33;11.60;;;;;;;4.95;nan;100137.25;4941022;29;20256;-74
2022/03/02 09:43:33;;;;;;;18.08;10.52;;;;;;;4.95;nan;100125.09;4941076;29;20551;-74
2022/03/02 09:46:05;;;;;;;17.45;12.73;;;;;;;5.01;nan;100122.28;4940300;28;20259;-74
2022/03/02 09:48:33;;;;;;;21.60;14.63;;;;;;;4.99;nan;100124.06;4938634;29;20705;-76
2022/03/02 09:51:05;;;;;;;17.92;11.65;;;;;;;4.87;nan;100122.72;4941378;28;20457;-75
2022/03/02 09:53:32;;;;;;;17.98;11.02;;;;;;;4.91;nan;100120.03;4938815;28;20264;-76
2022/03/02 09:56:02;;;;;;;18.50;11.77;;;;;;;4.98;nan;100116.31;4940485;29;20216;-76
2022/03/02 09:58:28;;;;;;;16.88;11.95;;;;;;;4.96;nan;100108.56;4936893;29;20259;-74
2022/03/02 10:00:57;;;;;;;15.23;12.52;;;;;;;4.93;nan;100110.41;4939995;28;20291;-75
2022/03/02 10:03:34;;;;;;;15.18;11.82;;;;;;;5.02;nan;100108.38;4938555;29;20403;-75
2022/03/02 10:06:04;;;;;;;14.68;10.63;;;;;;;5.15;nan;100107.94;4939878;28;20300;-76
2022/03/02 10:08:33;;;;;;;20.75;12.98;;;;;;;5.21;nan;100106.00;4938965;28;20586;-74
2022/03/02 10:11:03;;;;;;;17.88;12.50;;;;;;;5.30;nan;100099.63;4939715;28;20236;-74
2022/03/02 10:13:29;;;;;;;24.00;15.13;;;;;;;5.43;nan;100098.31;4938714;28;20213;-76
2022/03/02 10:15:57;;;;;;;23.80;15.90;;;;;;;5.47;nan;100093.84;4942357;28;20216;-76
2022/03/02 10:18:25;;;;;;;36.72;22.48;;;;;;;5.47;nan;100092.06;4938823;29;20201;-76
2022/03/02 10:20:59;;;;;;;23.42;15.93;;;;;;;5.62;nan;100087.25;4940621;29;20247;-75
2022/03/02 10:23:42;;;;;;;29.00;15.68;;;;;;;5.69;nan;100086.09;4943329;29;20205;-76
2022/03/02 10:26:19;;;;;;;20.70;15.48;;;;;;;5.71;nan;100094.72;4940755;29;20300;-76
2022/03/02 10:29:02;;;;;;;18.08;13.85;;;;;;;5.77;nan;100086.69;4941643;29;20693;-77
2022/03/02 10:31:31;;;;;;;22.17;16.93;;;;;;;5.90;nan;100090.53;4940435;28;20487;-75
2022/03/02 10:34:02;;;;;;;24.55;16.02;;;;;;;5.84;nan;100082.94;4942926;29;20599;-75
2022/03/02 10:36:29;;;;;;;19.60;14.98;;;;;;;5.85;nan;100070.75;4942503;29;20768;-75
2022/03/02 10:38:58;;;;;;;22.77;14.63;;;;;;;5.98;nan;100062.47;4942253;29;20209;-75
2022/03/02 10:41:25;;;;;;;19.52;14.32;;;;;;;6.08;nan;100070.78;4927287;29;20273;-79
2022/03/02 10:44:01;;;;;;;21.83;15.57;;;;;;;6.18;nan;100076.50;4907151;29;20358;-79
2022/03/02 10:46:27;;;;;;;22.27;14.20;;;;;;;6.25;nan;100067.53;4904451;29;20209;-79
2022/03/02 10:49:07;;;;;;;19.77;14.35;;;;;;;6.38;nan;100073.13;4905461;29;20217;-80
2022/03/02 10:51:34;;;;;;;25.05;15.23;;;;;;;6.53;nan;100063.84;4907145;29;20226;-78
2022/03/02 10:54:05;;;;;;;22.30;14.82;;;;;;;6.58;nan;100073.19;4905160;29;20821;-74
2022/03/02 10:56:38;;;;;;;19.77;14.07;;;;;;;6.62;nan;100060.88;4904796;29;20451;-79
2022/03/02 10:59:06;;;;;;;17.50;13.02;;;;;;;6.65;nan;100071.19;4904979;29;20201;-73
2022/03/02 11:01:33;;;;;;;17.23;11.68;;;;;;;6.80;nan;100070.56;4904638;29;20221;-79
2022/03/02 11:03:58;;;;;;;17.85;13.05;;;;;;;6.96;nan;100068.16;4904919;29;20297;-74
2022/03/02 11:06:24;;;;;;;12.80;8.93;;;;;;;7.07;nan;100068.59;4902264;29;20349;-76
2022/03/02 11:08:54;;;;;;;17.50;12.10;;;;;;;7.21;nan;100060.19;4907343;29;20653;-74
2022/03/02 11:11:20;;;;;;;12.20;10.20;;;;;;;7.32;nan;100054.50;4908574;29;20471;-75
2022/03/02 11:13:49;;;;;;;19.60;11.93;;;;;;;7.44;nan;100055.72;4908666;29;20229;-75
2022/03/02 11:16:21;;;;;;;15.25;10.90;;;;;;;7.52;nan;100061.47;4907735;29;20510;-74
2022/03/02 11:18:52;;;;;;;13.77;10.48;;;;;;;7.63;nan;100045.31;4909165;29;20214;-73
2022/03/02 11:21:21;;;;;;;17.65;13.15;;;;;;;7.72;nan;100050.09;4909067;29;20269;-77
2022/03/02 11:23:53;;;;;;;15.65;11.68;;;;;;;7.79;nan;100041.09;4908944;29;20211;-74
2022/03/02 11:26:28;;;;;;;16.38;10.65;;;;;;;7.86;nan;100031.22;4923153;29;20742;-76
2022/03/02 11:28:56;;;;;;;17.05;12.10;;;;;;;7.92;nan;100041.38;4909981;29;20445;-76
2022/03/02 11:31:30;;;;;;;18.98;13.38;;;;;;;7.91;nan;100035.31;4908978;29;20213;-77
2022/03/02 11:34:13;;;;;;;19.23;14.70;;;;;;;7.90;nan;100027.53;4908796;29;20253;-77